createdAt,value
2022-11-08T00:00:43.632Z,15.73
2022-11-08T00:03:10.579Z,16.13
2022-11-08T00:05:56.989Z,15.77
2022-11-08T00:08:42.438Z,15.81
2022-11-08T00:11:28.060Z,15.60
2022-11-08T00:13:57.662Z,16.00
2022-11-08T00:16:25.033Z,15.97
2022-11-08T00:18:51.757Z,15.84
2022-11-08T00:21:18.803Z,15.87
2022-11-08T00:23:45.510Z,15.98
2022-11-08T00:26:12.260Z,15.72
2022-11-08T00:28:39.093Z,15.51
2022-11-08T00:31:06.690Z,15.89
2022-11-08T00:33:33.527Z,15.60
2022-11-08T00:36:00.575Z,15.88
2022-11-08T00:38:27.415Z,15.74
2022-11-08T00:40:54.625Z,15.71
2022-11-08T00:43:21.605Z,15.58
2022-11-08T00:45:48.313Z,15.93
2022-11-08T00:48:15.202Z,15.74
2022-11-08T00:50:42.112Z,15.59
2022-11-08T00:53:08.982Z,15.57
2022-11-08T00:55:35.741Z,15.81
2022-11-08T00:58:02.598Z,15.71
2022-11-08T01:00:29.497Z,15.83
2022-11-08T01:03:14.859Z,15.69
2022-11-08T01:05:42.106Z,15.86
2022-11-08T01:08:09.595Z,15.97
2022-11-08T01:10:37.451Z,15.41
2022-11-08T01:13:04.252Z,15.36
2022-11-08T01:15:36.061Z,15.43
2022-11-08T01:18:04.295Z,15.53
2022-11-08T01:20:30.999Z,15.64
2022-11-08T01:22:57.856Z,15.36
2022-11-08T01:25:24.527Z,15.55
2022-11-08T01:27:51.328Z,15.53
2022-11-08T01:30:18.123Z,15.61
2022-11-08T01:32:44.904Z,15.48
2022-11-08T01:35:11.701Z,15.72
2022-11-08T01:37:38.408Z,15.97
2022-11-08T01:40:05.841Z,15.67
2022-11-08T01:42:33.398Z,16.07
2022-11-08T01:45:04.558Z,15.67
2022-11-08T01:47:31.526Z,15.91
2022-11-08T01:50:03.780Z,15.91
2022-11-08T01:52:36.359Z,15.75
2022-11-08T01:55:30.910Z,15.64
2022-11-08T01:58:11.245Z,15.74
2022-11-08T02:00:38.769Z,15.69
2022-11-08T02:03:07.779Z,15.67
2022-11-08T02:05:35.314Z,15.29
2022-11-08T02:08:10.497Z,15.45
2022-11-08T02:10:43.741Z,15.23
2022-11-08T02:13:15.015Z,15.33
2022-11-08T02:15:43.188Z,15.20
2022-11-08T02:18:10.436Z,15.07
2022-11-08T02:20:37.554Z,15.18
2022-11-08T02:23:13.541Z,15.00
2022-11-08T02:25:40.378Z,15.21
2022-11-08T02:28:07.051Z,14.92
2022-11-08T02:30:37.564Z,15.10
2022-11-08T02:33:30.932Z,15.14
2022-11-08T02:35:57.739Z,15.43
2022-11-08T02:38:26.107Z,15.33
2022-11-08T02:40:54.564Z,14.93
2022-11-08T02:43:22.883Z,15.26
2022-11-08T02:45:50.625Z,15.52
2022-11-08T02:48:18.718Z,15.45
2022-11-08T02:50:46.589Z,15.03
2022-11-08T02:53:13.627Z,15.34
2022-11-08T02:55:40.578Z,15.57
2022-11-08T02:58:07.554Z,15.39
2022-11-08T03:00:35.279Z,15.53
2022-11-08T03:03:02.393Z,15.12
2022-11-08T03:05:29.974Z,14.93
2022-11-08T03:07:56.751Z,15.21
2022-11-08T03:10:26.060Z,15.23
2022-11-08T03:13:00.878Z,15.00
2022-11-08T03:15:28.727Z,15.01
2022-11-08T03:17:56.139Z,15.36
2022-11-08T03:20:26.159Z,15.05
2022-11-08T03:23:03.417Z,15.02
2022-11-08T03:25:30.701Z,15.36
2022-11-08T03:28:03.117Z,14.76
2022-11-08T03:30:30.094Z,15.50
2022-11-08T03:32:59.259Z,15.36
2022-11-08T03:35:25.928Z,14.86
2022-11-08T03:37:54.380Z,14.97
2022-11-08T03:40:21.828Z,14.76
2022-11-08T03:42:48.900Z,15.18
2022-11-08T03:45:16.281Z,14.73
2022-11-08T03:47:44.583Z,14.71
2022-11-08T03:50:12.117Z,15.38
2022-11-08T03:52:43.136Z,14.92
2022-11-08T03:55:10.848Z,14.85
2022-11-08T03:57:38.551Z,14.88
2022-11-08T04:00:07.560Z,15.01
2022-11-08T04:02:38.589Z,15.26
2022-11-08T04:05:06.664Z,15.24
2022-11-08T04:07:33.380Z,15.12
2022-11-08T04:10:00.148Z,15.18
2022-11-08T04:12:45.533Z,15.15
2022-11-08T04:15:17.539Z,14.95
2022-11-08T04:18:04.474Z,15.11
2022-11-08T04:20:50.403Z,14.93
2022-11-08T04:23:18.068Z,14.78
2022-11-08T04:25:45.487Z,15.17
2022-11-08T04:28:13.552Z,14.87
2022-11-08T04:30:40.354Z,14.70
2022-11-08T04:33:07.230Z,14.90
2022-11-08T04:35:34.031Z,14.56
2022-11-08T04:38:02.296Z,14.43
2022-11-08T04:40:31.188Z,14.64
2022-11-08T04:43:01.139Z,14.56
2022-11-08T04:45:27.873Z,15.08
2022-11-08T04:47:54.678Z,14.54
2022-11-08T04:50:21.457Z,15.00
2022-11-08T04:52:53.927Z,14.97
2022-11-08T04:55:22.910Z,14.41
2022-11-08T04:57:50.351Z,15.04
2022-11-08T05:00:17.914Z,14.79
2022-11-08T05:02:46.834Z,14.41
2022-11-08T05:05:14.092Z,14.88
2022-11-08T05:07:41.233Z,14.30
2022-11-08T05:10:08.466Z,14.57
2022-11-08T05:12:36.686Z,14.64
2022-11-08T05:15:03.761Z,14.61
2022-11-08T05:17:30.410Z,14.61
2022-11-08T05:20:15.785Z,14.58
2022-11-08T05:23:01.107Z,14.58
2022-11-08T05:25:27.920Z,14.57
2022-11-08T05:27:54.976Z,14.72
2022-11-08T05:30:21.853Z,14.58
2022-11-08T05:32:51.642Z,14.63
2022-11-08T05:35:21.732Z,14.85
2022-11-08T05:37:49.002Z,14.54
2022-11-08T05:40:18.929Z,14.49
2022-11-08T05:42:45.670Z,14.46
2022-11-08T05:45:12.811Z,14.64
2022-11-08T05:47:39.568Z,14.30
2022-11-08T05:50:06.843Z,14.49
2022-11-08T05:52:33.545Z,14.44
2022-11-08T05:55:00.488Z,14.83
2022-11-08T05:57:27.255Z,14.82
2022-11-08T05:59:54.278Z,14.59
2022-11-08T06:02:41.167Z,14.32
2022-11-08T06:05:08.588Z,14.41
2022-11-08T06:07:36.482Z,14.60
2022-11-08T06:10:03.827Z,14.76
2022-11-08T06:12:30.837Z,14.59
2022-11-08T06:14:57.772Z,14.78
2022-11-08T06:17:26.271Z,14.59
2022-11-08T06:19:56.111Z,15.02
2022-11-08T06:22:22.953Z,14.66
2022-11-08T06:24:49.754Z,14.62
2022-11-08T06:27:16.515Z,14.83
2022-11-08T06:29:43.469Z,14.86
2022-11-08T06:32:10.821Z,14.60
2022-11-08T06:34:37.681Z,14.64
2022-11-08T06:37:05.320Z,14.61
2022-11-08T06:39:32.253Z,14.74
2022-11-08T06:42:00.335Z,14.82
2022-11-08T06:44:27.173Z,14.58
2022-11-08T06:46:55.845Z,14.72
2022-11-08T06:49:24.012Z,14.51
2022-11-08T06:51:51.405Z,14.62
2022-11-08T06:54:21.016Z,14.50
2022-11-08T06:56:48.901Z,14.58
2022-11-08T06:59:15.593Z,14.63
2022-11-08T07:01:45.617Z,14.90
2022-11-08T07:04:12.810Z,14.62
2022-11-08T07:06:39.670Z,14.59
2022-11-08T07:09:06.384Z,14.50
2022-11-08T07:11:33.240Z,14.74
2022-11-08T07:14:00.198Z,14.53
2022-11-08T07:16:27.220Z,15.11
2022-11-08T07:18:56.517Z,14.78
2022-11-08T07:21:23.782Z,14.99
2022-11-08T07:23:50.835Z,14.79
2022-11-08T07:26:17.559Z,14.57
2022-11-08T07:28:45.109Z,15.23
2022-11-08T07:31:11.850Z,14.72
2022-11-08T07:33:38.793Z,15.21
2022-11-08T07:36:05.818Z,15.19
2022-11-08T07:38:32.496Z,14.69
2022-11-08T07:41:00.629Z,14.95
2022-11-08T07:43:29.205Z,15.07
2022-11-08T07:46:01.100Z,15.25
2022-11-08T07:48:29.178Z,14.79
2022-11-08T07:50:56.050Z,15.25
2022-11-08T07:53:23.381Z,15.40
2022-11-08T07:55:50.211Z,15.67
2022-11-08T07:58:17.260Z,15.03
2022-11-08T08:00:45.037Z,15.33
2022-11-08T08:03:13.525Z,15.19
2022-11-08T08:05:42.731Z,15.38
2022-11-08T08:08:10.767Z,15.00
2022-11-08T08:10:37.713Z,15.11
2022-11-08T08:13:05.092Z,15.52
2022-11-08T08:15:32.212Z,15.84
2022-11-08T08:18:03.562Z,15.51
2022-11-08T08:20:30.968Z,15.35
2022-11-08T08:22:58.241Z,15.80
2022-11-08T08:25:26.012Z,15.47
2022-11-08T08:27:57.568Z,15.97
2022-11-08T08:30:25.220Z,15.84
2022-11-08T08:33:21.804Z,15.75
2022-11-08T08:35:40.164Z,15.74
2022-11-08T08:38:07.307Z,15.42
2022-11-08T08:40:34.432Z,16.09
2022-11-08T08:43:03.423Z,15.61
2022-11-08T08:45:31.310Z,15.65
2022-11-08T08:47:58.552Z,15.91
2022-11-08T08:50:27.036Z,15.83
2022-11-08T08:52:59.920Z,16.07
2022-11-08T08:55:27.431Z,15.97
2022-11-08T08:57:54.529Z,16.40
2022-11-08T09:03:10.348Z,16.38
2022-11-08T09:05:37.654Z,16.38
2022-11-08T09:08:04.536Z,16.14
2022-11-08T09:10:31.578Z,16.29
2022-11-08T09:12:58.325Z,16.32
2022-11-08T09:15:25.146Z,16.26
2022-11-08T09:17:54.567Z,16.19
2022-11-08T09:20:21.760Z,16.71
2022-11-08T09:22:49.005Z,16.26
2022-11-08T09:25:16.043Z,16.25
2022-11-08T09:27:42.920Z,16.18
2022-11-08T09:30:09.771Z,17.08
2022-11-08T09:32:59.197Z,16.40
2022-11-08T09:35:23.981Z,16.38
2022-11-08T09:37:53.260Z,16.65
2022-11-08T09:40:38.936Z,16.29
2022-11-08T09:43:33.529Z,16.61
2022-11-08T09:46:00.246Z,16.49
2022-11-08T09:48:31.988Z,16.96
2022-11-08T09:51:20.912Z,17.00
2022-11-08T09:53:56.328Z,16.58
2022-11-08T09:56:35.946Z,16.57
2022-11-08T09:59:21.260Z,16.74
2022-11-08T10:01:49.024Z,16.49
2022-11-08T10:04:24.276Z,16.72
2022-11-08T10:07:20.124Z,16.67
2022-11-08T10:10:14.060Z,16.69
2022-11-08T10:12:47.572Z,17.19
2022-11-08T10:15:32.513Z,17.21
2022-11-08T10:18:25.538Z,16.79
2022-11-08T10:21:13.969Z,16.56
2022-11-08T10:23:50.982Z,16.59
2022-11-08T10:26:27.009Z,16.50
2022-11-08T10:29:21.698Z,16.90
2022-11-08T10:31:53.793Z,16.64
2022-11-08T10:34:42.039Z,17.00
2022-11-08T10:37:45.142Z,17.25
2022-11-08T10:40:23.383Z,17.16
2022-11-08T10:42:59.995Z,17.08
2022-11-08T10:45:27.028Z,17.40
2022-11-08T10:47:54.691Z,17.42
2022-11-08T10:50:32.176Z,17.42
2022-11-08T10:53:01.380Z,17.36
2022-11-08T10:55:33.677Z,17.27
2022-11-08T10:58:02.717Z,17.29
2022-11-08T11:00:35.072Z,17.56
2022-11-08T11:03:29.023Z,17.18
2022-11-08T11:06:00.878Z,17.61
2022-11-08T11:08:28.293Z,17.42
2022-11-08T11:13:37.371Z,18.02
2022-11-08T11:16:04.607Z,17.24
2022-11-08T11:18:34.225Z,17.93
2022-11-08T11:21:04.032Z,17.79
2022-11-08T11:23:36.615Z,17.76
2022-11-08T11:26:04.544Z,17.72
2022-11-08T11:28:31.413Z,17.52
2022-11-08T11:31:16.064Z,17.62
2022-11-08T11:33:45.913Z,17.11
2022-11-08T11:36:16.446Z,17.00
2022-11-08T11:38:55.830Z,17.29
2022-11-08T11:41:30.390Z,17.22
2022-11-08T11:44:22.329Z,17.43
2022-11-08T11:47:05.449Z,17.81
2022-11-08T11:49:32.597Z,17.50
2022-11-08T11:51:59.660Z,17.54
2022-11-08T11:54:33.508Z,17.51
2022-11-08T11:57:51.689Z,17.28
2022-11-08T12:00:22.251Z,17.57
2022-11-08T12:02:58.202Z,17.55
2022-11-08T12:05:40.218Z,17.59
2022-11-08T12:08:19.799Z,17.76
2022-11-08T12:11:09.711Z,17.72
2022-11-08T12:13:53.992Z,17.36
2022-11-08T12:16:31.050Z,17.43
2022-11-08T12:19:16.283Z,17.27
2022-11-08T12:21:46.155Z,17.40
2022-11-08T12:24:31.976Z,17.43
2022-11-08T12:27:35.961Z,17.97
2022-11-08T12:30:08.529Z,17.78
2022-11-08T12:32:44.571Z,17.39
2022-11-08T12:35:37.025Z,17.33
2022-11-08T12:38:18.203Z,17.33
2022-11-08T12:40:45.003Z,17.25
2022-11-08T12:43:42.835Z,17.38
2022-11-08T12:46:13.145Z,17.77
2022-11-08T12:49:35.703Z,17.95
2022-11-08T12:52:40.201Z,17.65
2022-11-08T12:55:12.411Z,17.56
2022-11-08T12:57:40.955Z,17.65
2022-11-08T13:00:15.511Z,17.51
2022-11-08T13:02:43.388Z,18.29
2022-11-08T13:05:28.846Z,17.90
2022-11-08T13:08:00.085Z,17.94
2022-11-08T13:10:50.235Z,17.54
2022-11-08T13:13:38.536Z,18.05
2022-11-08T13:16:24.810Z,17.92
2022-11-08T13:18:56.980Z,18.11
2022-11-08T13:21:31.471Z,18.01
2022-11-08T13:24:06.782Z,18.39
2022-11-08T13:26:43.219Z,18.03
2022-11-08T13:29:16.038Z,17.77
2022-11-08T13:31:55.067Z,18.06
2022-11-08T13:34:38.162Z,17.95
2022-11-08T13:37:33.013Z,18.02
2022-11-08T13:40:24.726Z,17.81
2022-11-08T13:43:14.971Z,17.94
2022-11-08T13:45:42.249Z,18.26
2022-11-08T13:48:24.961Z,17.99
2022-11-08T13:50:54.368Z,17.98
2022-11-08T13:53:31.651Z,18.18
2022-11-08T13:56:05.442Z,18.16
2022-11-08T13:58:39.681Z,18.38
2022-11-08T14:01:08.874Z,17.80
2022-11-08T14:03:35.694Z,18.05
2022-11-08T14:06:05.228Z,18.10
2022-11-08T14:08:48.631Z,17.89
2022-11-08T14:11:24.284Z,17.70
2022-11-08T14:13:57.469Z,18.08
2022-11-08T14:16:29.656Z,17.67
2022-11-08T14:19:08.030Z,18.44
2022-11-08T14:21:35.225Z,18.38
2022-11-08T14:24:01.953Z,17.97
2022-11-08T14:26:31.164Z,17.78
2022-11-08T14:28:59.925Z,18.14
2022-11-08T14:31:31.182Z,18.02
2022-11-08T14:33:59.503Z,18.06
2022-11-08T14:36:28.387Z,18.08
2022-11-08T14:39:26.206Z,17.93
2022-11-08T14:41:55.638Z,17.94
2022-11-08T14:44:23.749Z,18.01
2022-11-08T14:46:51.806Z,17.63
2022-11-08T14:49:21.809Z,18.06
2022-11-08T14:52:07.603Z,18.03
2022-11-08T14:54:40.475Z,17.86
2022-11-08T14:57:30.310Z,18.04
2022-11-08T14:59:58.210Z,18.00
2022-11-08T15:02:25.708Z,18.21
2022-11-08T15:04:53.341Z,18.03
2022-11-08T15:07:21.427Z,17.90
2022-11-08T15:09:48.740Z,18.13
2022-11-08T15:12:17.768Z,18.17
2022-11-08T15:14:51.605Z,18.16
2022-11-08T15:17:38.573Z,17.84
2022-11-08T15:20:11.159Z,17.81
2022-11-08T15:22:38.014Z,17.99
2022-11-08T15:25:29.844Z,18.13
2022-11-08T15:27:58.499Z,18.31
2022-11-08T15:30:35.436Z,18.07
2022-11-08T15:33:03.494Z,18.11
2022-11-08T15:35:36.711Z,17.56
2022-11-08T15:38:20.010Z,18.00
2022-11-08T15:40:51.496Z,17.84
2022-11-08T15:43:30.296Z,17.78
2022-11-08T15:45:58.106Z,17.87
2022-11-08T15:48:27.721Z,17.72
2022-11-08T15:50:56.192Z,17.90
2022-11-08T15:53:23.928Z,17.95
2022-11-08T15:55:53.781Z,18.28
2022-11-08T15:58:36.859Z,17.98
2022-11-08T16:01:04.863Z,17.72
2022-11-08T16:03:33.602Z,17.88
2022-11-08T16:06:00.559Z,17.54
2022-11-08T16:08:27.588Z,17.98
2022-11-08T16:10:59.041Z,17.59
2022-11-08T16:13:33.346Z,17.67
2022-11-08T16:16:01.029Z,17.93
2022-11-08T16:18:27.924Z,17.36
2022-11-08T16:20:54.768Z,17.64
2022-11-08T16:23:21.587Z,17.27
2022-11-08T16:25:51.948Z,17.38
2022-11-08T16:28:28.183Z,17.80
2022-11-08T16:30:54.967Z,17.97
2022-11-08T16:33:24.533Z,17.67
2022-11-08T16:35:52.014Z,17.22
2022-11-08T16:38:23.879Z,17.70
2022-11-08T16:40:50.788Z,17.40
2022-11-08T16:43:17.621Z,17.49
2022-11-08T16:46:04.265Z,17.67
2022-11-08T16:48:33.193Z,17.45
2022-11-08T16:51:02.460Z,17.42
2022-11-08T16:53:30.109Z,17.55
2022-11-08T16:55:58.027Z,17.46
2022-11-08T16:58:25.987Z,17.31
2022-11-08T17:00:53.100Z,17.28
2022-11-08T17:03:22.680Z,17.71
2022-11-08T17:05:49.379Z,17.58
2022-11-08T17:08:17.434Z,17.31
2022-11-08T17:10:44.625Z,17.02
2022-11-08T17:13:14.293Z,17.19
2022-11-08T17:15:41.182Z,17.44
2022-11-08T17:18:13.376Z,17.68
2022-11-08T17:20:41.472Z,17.41
2022-11-08T17:23:09.543Z,17.42
2022-11-08T17:25:38.185Z,17.16
2022-11-08T17:28:05.363Z,17.70
2022-11-08T17:30:32.260Z,17.55
2022-11-08T17:32:58.951Z,17.61
2022-11-08T17:35:25.982Z,17.35
2022-11-08T17:37:53.888Z,17.30
2022-11-08T17:40:20.968Z,17.36
2022-11-08T17:42:47.988Z,17.51
2022-11-08T17:45:16.088Z,17.48
2022-11-08T17:47:43.069Z,17.50
2022-11-08T17:50:10.164Z,17.68
2022-11-08T17:52:37.318Z,17.63
2022-11-08T17:55:07.827Z,17.61
2022-11-08T17:57:34.771Z,17.57
2022-11-08T18:00:02.236Z,17.51
2022-11-08T18:02:39.234Z,17.35
2022-11-08T18:05:06.480Z,17.58
2022-11-08T18:07:33.535Z,17.38
2022-11-08T18:10:00.381Z,17.46
2022-11-08T18:12:27.069Z,17.17
2022-11-08T18:14:53.919Z,17.19
2022-11-08T18:17:22.545Z,16.98
2022-11-08T18:19:49.375Z,17.05
2022-11-08T18:22:16.147Z,17.09
2022-11-08T18:24:50.124Z,17.30
2022-11-08T18:27:21.386Z,17.36
2022-11-08T18:29:48.456Z,17.00
2022-11-08T18:32:15.309Z,17.54
2022-11-08T18:34:42.345Z,17.19
2022-11-08T18:37:09.430Z,17.38
2022-11-08T18:39:36.194Z,17.29
2022-11-08T18:42:03.206Z,17.69
2022-11-08T18:44:30.228Z,17.54
2022-11-08T18:46:58.677Z,17.48
2022-11-08T18:49:27.578Z,17.24
2022-11-08T18:51:54.332Z,17.36
2022-11-08T18:54:21.102Z,17.36
2022-11-08T18:56:48.814Z,17.55
2022-11-08T18:59:15.767Z,17.54
2022-11-08T19:01:42.970Z,17.66
2022-11-08T19:04:10.028Z,17.75
2022-11-08T19:06:36.742Z,17.25
2022-11-08T19:09:04.383Z,17.75
2022-11-08T19:11:31.328Z,17.30
2022-11-08T19:13:58.878Z,17.77
2022-11-08T19:16:26.781Z,17.57
2022-11-08T19:18:54.181Z,17.49
2022-11-08T19:21:23.308Z,17.38
2022-11-08T19:23:51.387Z,17.21
2022-11-08T19:26:21.765Z,17.23
2022-11-08T19:28:49.726Z,17.20
2022-11-08T19:31:19.177Z,17.29
2022-11-08T19:33:46.491Z,17.57
2022-11-08T19:36:19.387Z,17.41
2022-11-08T19:38:47.125Z,17.34
2022-11-08T19:41:16.797Z,17.84
2022-11-08T19:43:44.013Z,17.60
2022-11-08T19:46:16.184Z,17.63
2022-11-08T19:48:44.657Z,17.49
2022-11-08T19:51:16.865Z,17.46
2022-11-08T19:53:44.428Z,17.21
2022-11-08T19:56:15.084Z,17.53
2022-11-08T19:58:42.830Z,17.21
2022-11-08T20:01:15.529Z,17.30
2022-11-08T20:03:42.581Z,17.66
2022-11-08T20:06:10.219Z,17.84
2022-11-08T20:08:37.674Z,17.67
2022-11-08T20:11:15.069Z,17.69
2022-11-08T20:13:42.418Z,17.66
2022-11-08T20:18:52.027Z,17.24
2022-11-08T20:21:19.680Z,17.60
2022-11-08T20:23:49.480Z,18.08
2022-11-08T20:26:22.232Z,17.54
2022-11-08T20:28:56.340Z,17.73
2022-11-08T20:31:25.376Z,17.34
2022-11-08T20:33:53.749Z,17.41
2022-11-08T20:36:23.660Z,17.47
2022-11-08T20:38:51.138Z,17.84
2022-11-08T20:41:18.550Z,17.51
2022-11-08T20:43:50.326Z,17.46
2022-11-08T20:46:19.775Z,17.24
2022-11-08T20:48:51.166Z,17.41
2022-11-08T20:51:21.239Z,17.41
2022-11-08T20:53:48.557Z,17.66
2022-11-08T20:56:18.257Z,17.32
2022-11-08T20:58:46.306Z,17.29
2022-11-08T21:01:15.602Z,17.31
2022-11-08T21:03:44.774Z,17.07
2022-11-08T21:06:15.493Z,17.59
2022-11-08T21:09:00.853Z,17.42
2022-11-08T21:11:34.804Z,17.25
2022-11-08T21:14:03.237Z,17.05
2022-11-08T21:16:35.125Z,17.13
2022-11-08T21:19:09.528Z,17.03
2022-11-08T21:21:36.708Z,17.21
2022-11-08T21:24:03.706Z,17.08
2022-11-08T21:26:30.616Z,17.04
2022-11-08T21:28:57.476Z,17.49
2022-11-08T21:31:24.463Z,17.51
2022-11-08T21:33:51.302Z,17.37
2022-11-08T21:36:18.470Z,17.46
2022-11-08T21:38:45.721Z,17.25
2022-11-08T21:41:13.467Z,16.97
2022-11-08T21:43:43.442Z,17.16
2022-11-08T21:46:26.923Z,16.95
2022-11-08T21:48:58.147Z,16.95
2022-11-08T21:51:25.834Z,17.01
2022-11-08T21:53:56.196Z,17.30
2022-11-08T21:56:25.429Z,17.22
2022-11-08T21:58:52.805Z,16.70
2022-11-08T22:01:22.236Z,16.87
2022-11-08T22:03:51.085Z,17.03
2022-11-08T22:06:21.226Z,16.88
2022-11-08T22:08:49.609Z,17.25
2022-11-08T22:11:16.660Z,16.84
2022-11-08T22:13:47.941Z,17.04
2022-11-08T22:16:17.445Z,17.07
2022-11-08T22:21:43.528Z,17.14
2022-11-08T22:24:13.199Z,17.34
2022-11-08T22:26:41.065Z,17.31
2022-11-08T22:29:08.103Z,16.90
2022-11-08T22:31:35.205Z,17.32
2022-11-08T22:34:03.586Z,17.21
2022-11-08T22:36:30.525Z,17.15
2022-11-08T22:38:57.578Z,17.29
2022-11-08T22:41:24.729Z,17.20
2022-11-08T22:43:52.209Z,17.38
2022-11-08T22:46:19.415Z,17.20
2022-11-08T22:48:46.693Z,17.26
2022-11-08T22:51:13.751Z,17.02
2022-11-08T22:53:41.439Z,16.81
2022-11-08T22:56:11.533Z,17.32
2022-11-08T22:58:39.365Z,17.34
2022-11-08T23:01:08.218Z,17.59
2022-11-08T23:03:35.020Z,17.26
2022-11-08T23:06:02.006Z,17.16
2022-11-08T23:08:29.346Z,17.07
2022-11-08T23:11:17.886Z,17.20
2022-11-08T23:14:03.301Z,17.25
2022-11-08T23:16:37.606Z,17.05
2022-11-08T23:19:24.344Z,17.11
2022-11-08T23:22:11.407Z,16.76
2022-11-08T23:24:38.257Z,17.22
2022-11-08T23:27:24.316Z,17.23
2022-11-08T23:30:09.841Z,17.14
2022-11-08T23:32:36.973Z,17.12
2022-11-08T23:35:03.966Z,17.17
2022-11-08T23:37:31.222Z,17.01
2022-11-08T23:40:16.579Z,16.90
2022-11-08T23:43:01.988Z,16.77
2022-11-08T23:45:29.398Z,16.92
2022-11-08T23:47:56.327Z,17.05
2022-11-08T23:50:23.136Z,17.22
2022-11-08T23:52:49.906Z,16.85
2022-11-08T23:55:16.884Z,17.04
2022-11-08T23:57:43.698Z,16.91
